createdAt,value
2022-11-16T00:00:12.421Z,9.32
2022-11-16T00:02:38.673Z,10.77
2022-11-16T00:05:04.832Z,12.27
2022-11-16T00:07:30.981Z,10.55
2022-11-16T00:09:57.172Z,9.43
2022-11-16T00:12:23.314Z,9.75
2022-11-16T00:14:49.432Z,8.15
2022-11-16T00:17:15.583Z,9.30
2022-11-16T00:19:41.738Z,10.93
2022-11-16T00:22:07.865Z,9.40
2022-11-16T00:24:33.988Z,8.80
2022-11-16T00:27:00.143Z,12.00
2022-11-16T00:29:26.263Z,11.98
2022-11-16T00:31:52.421Z,9.05
2022-11-16T00:34:18.602Z,11.52
2022-11-16T00:36:44.739Z,9.23
2022-11-16T00:39:10.847Z,7.43
2022-11-16T00:41:36.984Z,9.60
2022-11-16T00:44:03.112Z,9.60
2022-11-16T00:46:29.222Z,11.77
2022-11-16T00:48:55.356Z,12.10
2022-11-16T00:51:21.490Z,11.50
2022-11-16T00:53:47.616Z,12.23
2022-11-16T00:56:13.765Z,9.35
2022-11-16T00:58:39.906Z,12.45
2022-11-16T01:01:06.037Z,12.27
2022-11-16T01:03:32.218Z,12.77
2022-11-16T01:05:58.340Z,14.95
2022-11-16T01:08:24.479Z,11.45
2022-11-16T01:10:50.629Z,12.43
2022-11-16T01:13:16.785Z,10.77
2022-11-16T01:15:42.925Z,12.25
2022-11-16T01:18:09.061Z,11.15
2022-11-16T01:20:35.174Z,10.20
2022-11-16T01:23:01.317Z,10.02
2022-11-16T01:25:27.455Z,10.93
2022-11-16T01:27:53.575Z,12.68
2022-11-16T01:30:19.690Z,9.05
2022-11-16T01:32:45.821Z,13.40
2022-11-16T01:35:11.944Z,10.95
2022-11-16T01:37:38.097Z,10.10
2022-11-16T01:40:04.220Z,13.00
2022-11-16T01:42:30.361Z,12.95
2022-11-16T01:44:56.511Z,11.43
2022-11-16T01:47:22.625Z,11.00
2022-11-16T01:49:48.793Z,11.32
2022-11-16T01:52:14.924Z,12.20
2022-11-16T01:54:41.076Z,10.43
2022-11-16T01:57:07.213Z,12.68
2022-11-16T01:59:33.338Z,10.77
2022-11-16T02:01:59.477Z,11.93
2022-11-16T02:04:25.609Z,11.18
2022-11-16T02:06:51.778Z,12.90
2022-11-16T02:09:17.920Z,12.05
2022-11-16T02:11:44.071Z,11.23
2022-11-16T02:14:10.218Z,9.73
2022-11-16T02:16:36.361Z,12.13
2022-11-16T02:19:02.462Z,13.25
2022-11-16T02:21:28.591Z,11.07
2022-11-16T02:23:54.760Z,11.82
2022-11-16T02:26:20.897Z,13.07
2022-11-16T02:28:47.069Z,10.90
2022-11-16T02:31:13.195Z,12.48
2022-11-16T02:33:39.320Z,9.50
2022-11-16T02:36:05.455Z,12.88
2022-11-16T02:38:31.873Z,10.63
2022-11-16T02:40:58.217Z,14.88
2022-11-16T02:43:24.333Z,10.18
2022-11-16T02:45:50.489Z,12.32
2022-11-16T02:48:16.628Z,10.00
2022-11-16T02:50:42.769Z,11.60
2022-11-16T02:53:08.887Z,13.52
2022-11-16T02:55:35.004Z,15.82
2022-11-16T02:58:01.169Z,11.25
2022-11-16T03:00:27.287Z,14.15
2022-11-16T03:02:53.438Z,15.75
2022-11-16T03:05:19.559Z,15.35
2022-11-16T03:07:45.708Z,10.73
2022-11-16T03:10:13.932Z,16.15
2022-11-16T03:12:40.065Z,12.02
2022-11-16T03:15:06.410Z,14.48
2022-11-16T03:17:32.562Z,12.18
2022-11-16T03:19:58.687Z,13.88
2022-11-16T03:22:25.100Z,17.67
2022-11-16T03:24:51.212Z,12.25
2022-11-16T03:27:17.332Z,14.73
2022-11-16T03:29:43.450Z,14.70
2022-11-16T03:32:09.592Z,14.23
2022-11-16T03:34:35.738Z,12.98
2022-11-16T03:37:01.874Z,13.85
2022-11-16T03:39:27.990Z,12.27
2022-11-16T03:41:54.147Z,15.98
2022-11-16T03:44:20.257Z,12.40
2022-11-16T03:46:46.381Z,13.00
2022-11-16T03:49:12.550Z,17.33
2022-11-16T03:51:38.679Z,12.55
2022-11-16T03:54:04.797Z,18.63
2022-11-16T03:56:30.965Z,14.00
2022-11-16T03:58:57.087Z,17.63
2022-11-16T04:01:23.275Z,15.52
2022-11-16T04:03:49.438Z,14.60
2022-11-16T04:06:15.686Z,17.23
2022-11-16T04:08:41.811Z,14.45
2022-11-16T04:11:07.975Z,14.75
2022-11-16T04:13:34.117Z,20.98
2022-11-16T04:16:00.236Z,17.67
2022-11-16T04:18:26.357Z,18.23
2022-11-16T04:20:52.496Z,16.73
2022-11-16T04:23:18.636Z,18.95
2022-11-16T04:25:44.782Z,16.35
2022-11-16T04:28:10.882Z,17.95
2022-11-16T04:30:36.998Z,19.40
2022-11-16T04:33:03.156Z,15.23
2022-11-16T04:35:29.267Z,16.95
2022-11-16T04:37:55.411Z,20.80
2022-11-16T04:40:21.751Z,17.48
2022-11-16T04:42:47.901Z,15.95
2022-11-16T04:45:14.014Z,18.58
2022-11-16T04:47:40.154Z,18.42
2022-11-16T04:50:06.316Z,22.58
2022-11-16T04:52:32.461Z,20.05
2022-11-16T04:54:58.585Z,20.65
2022-11-16T04:57:24.706Z,18.30
2022-11-16T04:59:50.865Z,20.00
2022-11-16T05:02:16.976Z,17.98
2022-11-16T05:04:43.104Z,19.83
2022-11-16T05:07:09.237Z,18.85
2022-11-16T05:09:35.403Z,23.33
2022-11-16T05:12:01.563Z,19.98
2022-11-16T05:14:27.684Z,21.52
2022-11-16T05:16:53.797Z,19.80
2022-11-16T05:19:19.922Z,19.38
2022-11-16T05:21:46.045Z,18.80
2022-11-16T05:24:12.201Z,20.70
2022-11-16T05:26:38.315Z,18.52
2022-11-16T05:29:04.460Z,16.02
2022-11-16T05:31:30.581Z,16.17
2022-11-16T05:33:56.731Z,23.55
2022-11-16T05:36:22.865Z,18.00
2022-11-16T05:38:52.645Z,20.95
2022-11-16T05:41:21.291Z,17.80
2022-11-16T05:43:47.413Z,18.70
2022-11-16T05:46:13.535Z,23.00
2022-11-16T05:48:39.698Z,17.35
2022-11-16T05:51:05.836Z,17.50
2022-11-16T05:53:31.980Z,17.42
2022-11-16T05:55:58.172Z,18.25
2022-11-16T05:58:24.333Z,19.33
2022-11-16T06:00:50.455Z,19.13
2022-11-16T06:03:16.701Z,17.27
2022-11-16T06:05:42.818Z,21.13
2022-11-16T06:08:08.940Z,17.85
2022-11-16T06:10:35.126Z,18.88
2022-11-16T06:13:01.252Z,23.60
2022-11-16T06:15:27.371Z,19.50
2022-11-16T06:17:53.529Z,22.10
2022-11-16T06:20:19.658Z,19.92
2022-11-16T06:22:45.775Z,23.75
2022-11-16T06:25:11.918Z,19.08
2022-11-16T06:27:38.039Z,18.38
2022-11-16T06:30:04.208Z,21.10
2022-11-16T06:32:30.328Z,17.20
2022-11-16T06:34:56.446Z,15.65
2022-11-16T06:37:22.578Z,16.02
2022-11-16T06:39:48.754Z,23.27
2022-11-16T06:42:14.874Z,18.55
2022-11-16T06:44:41.024Z,17.80
2022-11-16T06:47:07.150Z,18.55
2022-11-16T06:49:33.300Z,19.20
2022-11-16T06:51:59.436Z,20.38
2022-11-16T06:54:25.557Z,20.23
2022-11-16T06:56:51.697Z,22.75
2022-11-16T06:59:17.819Z,18.25
2022-11-16T07:01:44.035Z,28.15
2022-11-16T07:04:10.204Z,22.20
2022-11-16T07:06:36.357Z,21.85
2022-11-16T07:09:02.501Z,22.88
2022-11-16T07:11:28.625Z,21.13
2022-11-16T07:13:54.758Z,26.73
2022-11-16T07:16:20.888Z,18.55
2022-11-16T07:18:47.036Z,20.27
2022-11-16T07:21:13.189Z,18.88
2022-11-16T07:23:39.302Z,21.90
2022-11-16T07:26:05.458Z,20.90
2022-11-16T07:28:31.856Z,23.55
2022-11-16T07:30:58.143Z,20.25
2022-11-16T07:33:24.297Z,21.40
2022-11-16T07:35:50.452Z,19.38
2022-11-16T07:38:18.121Z,19.55
2022-11-16T07:40:44.498Z,23.77
2022-11-16T07:43:10.642Z,21.02
2022-11-16T07:45:36.766Z,19.23
2022-11-16T07:48:02.882Z,20.77
2022-11-16T07:50:29.046Z,19.40
2022-11-16T07:52:55.219Z,18.50
2022-11-16T07:55:21.350Z,17.05
2022-11-16T07:57:52.949Z,20.60
2022-11-16T08:00:19.508Z,22.02
2022-11-16T08:02:45.724Z,19.02
2022-11-16T08:05:11.889Z,20.13
2022-11-16T08:07:38.098Z,15.52
2022-11-16T08:10:04.383Z,11.90
2022-11-16T08:12:30.566Z,12.73
2022-11-16T08:14:56.692Z,15.05
2022-11-16T08:17:22.826Z,16.30
2022-11-16T08:19:48.995Z,15.48
2022-11-16T08:22:15.143Z,12.07
2022-11-16T08:24:41.281Z,14.05
2022-11-16T08:27:07.430Z,12.45
2022-11-16T08:29:33.548Z,10.93
2022-11-16T08:31:59.676Z,12.63
2022-11-16T08:37:09.525Z,11.75
2022-11-16T08:39:35.670Z,15.25
2022-11-16T08:42:01.802Z,11.00
2022-11-16T08:44:27.959Z,12.77
2022-11-16T08:46:54.081Z,14.30
2022-11-16T08:49:20.214Z,13.07
2022-11-16T08:51:46.382Z,11.60
2022-11-16T08:54:12.530Z,22.58
2022-11-16T08:56:38.682Z,14.25
2022-11-16T08:59:04.799Z,24.40
2022-11-16T09:01:30.979Z,13.18
2022-11-16T09:03:57.123Z,11.93
2022-11-16T09:06:23.242Z,8.55
2022-11-16T09:08:49.379Z,7.50
2022-11-16T09:11:15.505Z,7.78
2022-11-16T09:13:41.673Z,10.80
2022-11-16T09:16:07.815Z,5.63
2022-11-16T09:18:34.285Z,7.80
2022-11-16T09:21:00.771Z,7.50
2022-11-16T09:23:26.891Z,8.85
2022-11-16T09:25:53.025Z,5.47
2022-11-16T09:28:19.155Z,5.22
2022-11-16T09:30:45.290Z,6.18
2022-11-16T09:33:11.422Z,6.80
2022-11-16T09:35:37.570Z,7.35
2022-11-16T09:38:03.691Z,9.60
2022-11-16T09:40:29.862Z,6.43
2022-11-16T09:42:55.994Z,6.55
2022-11-16T09:45:22.168Z,7.47
2022-11-16T09:47:48.282Z,4.63
2022-11-16T09:50:14.409Z,6.72
2022-11-16T09:52:40.569Z,5.70
2022-11-16T09:55:07.542Z,7.95
2022-11-16T09:57:35.013Z,7.15
2022-11-16T10:00:01.191Z,5.05
2022-11-16T10:02:27.367Z,4.80
2022-11-16T10:04:57.981Z,4.38
2022-11-16T10:07:24.721Z,6.75
2022-11-16T10:09:50.894Z,3.95
2022-11-16T10:12:17.003Z,7.65
2022-11-16T10:14:43.133Z,2.65
2022-11-16T10:17:09.284Z,3.30
2022-11-16T10:19:35.441Z,3.80
2022-11-16T10:22:01.571Z,8.05
2022-11-16T10:24:27.741Z,5.90
2022-11-16T10:26:53.866Z,4.80
2022-11-16T10:29:19.984Z,5.00
2022-11-16T10:31:46.147Z,8.57
2022-11-16T10:34:12.267Z,4.95
2022-11-16T10:36:38.404Z,3.55
2022-11-16T10:39:04.539Z,4.90
2022-11-16T10:41:30.695Z,6.28
2022-11-16T10:43:56.816Z,7.88
2022-11-16T10:46:23.003Z,4.65
2022-11-16T10:48:49.141Z,3.47
2022-11-16T10:51:15.262Z,5.82
2022-11-16T10:53:41.379Z,5.40
2022-11-16T10:56:07.520Z,2.40
2022-11-16T10:58:33.640Z,3.47
2022-11-16T11:00:59.784Z,5.75
2022-11-16T11:03:25.969Z,4.22
2022-11-16T11:05:52.091Z,6.07
2022-11-16T11:08:18.239Z,2.22
2022-11-16T11:10:44.383Z,5.07
2022-11-16T11:13:10.511Z,6.22
2022-11-16T11:15:36.636Z,5.68
2022-11-16T11:18:02.789Z,6.22
2022-11-16T11:20:28.928Z,4.20
2022-11-16T11:22:55.040Z,2.95
2022-11-16T11:25:21.204Z,5.20
2022-11-16T11:27:47.318Z,6.68
2022-11-16T11:30:13.435Z,6.72
2022-11-16T11:32:39.593Z,3.45
2022-11-16T11:35:05.719Z,3.22
2022-11-16T11:37:31.832Z,4.35
2022-11-16T11:39:57.996Z,6.18
2022-11-16T11:42:24.121Z,3.55
2022-11-16T11:44:50.266Z,5.35
2022-11-16T11:47:55.750Z,5.80
2022-11-16T11:50:02.534Z,3.63
2022-11-16T11:52:28.680Z,6.55
2022-11-16T11:54:54.824Z,4.05
2022-11-16T11:57:20.949Z,8.32
2022-11-16T11:59:47.089Z,3.53
2022-11-16T12:02:13.227Z,5.65
2022-11-16T12:04:39.343Z,3.63
2022-11-16T12:07:05.539Z,7.03
2022-11-16T12:09:31.702Z,4.15
2022-11-16T12:11:57.844Z,2.25
2022-11-16T12:14:24.020Z,5.13
2022-11-16T12:16:50.135Z,3.53
2022-11-16T12:19:16.253Z,5.15
2022-11-16T12:21:42.475Z,3.97
2022-11-16T12:24:08.622Z,3.45
2022-11-16T12:26:34.780Z,7.10
2022-11-16T12:29:00.919Z,7.18
2022-11-16T12:31:27.062Z,3.90
2022-11-16T12:33:53.182Z,3.70
2022-11-16T12:36:19.308Z,4.97
2022-11-16T12:38:45.458Z,5.03
2022-11-16T12:41:11.593Z,4.90
2022-11-16T12:43:37.736Z,10.48
2022-11-16T12:46:03.874Z,3.40
2022-11-16T12:48:30.002Z,5.07
2022-11-16T12:50:56.125Z,7.05
2022-11-16T12:53:22.274Z,5.07
2022-11-16T12:55:48.411Z,13.07
2022-11-16T12:58:14.520Z,6.18
2022-11-16T13:00:40.707Z,3.97
2022-11-16T13:03:06.871Z,3.95
2022-11-16T13:05:33.005Z,7.10
2022-11-16T13:07:59.197Z,2.88
2022-11-16T13:10:25.327Z,1.88
2022-11-16T13:12:55.794Z,3.63
2022-11-16T13:15:30.093Z,4.13
2022-11-16T13:17:56.224Z,4.95
2022-11-16T13:20:22.375Z,3.53
2022-11-16T13:22:48.501Z,3.20
2022-11-16T13:25:14.651Z,7.50
2022-11-16T13:27:40.824Z,2.80
2022-11-16T13:30:06.968Z,3.40
2022-11-16T13:32:33.113Z,2.40
2022-11-16T13:34:59.237Z,2.60
2022-11-16T13:37:25.410Z,3.20
2022-11-16T13:39:51.578Z,3.60
2022-11-16T13:42:17.744Z,1.70
2022-11-16T13:44:48.763Z,7.10
2022-11-16T13:47:17.465Z,5.32
2022-11-16T13:49:43.588Z,2.70
2022-11-16T13:52:35.638Z,5.50
2022-11-16T13:54:56.440Z,7.30
2022-11-16T13:57:22.828Z,4.07
2022-11-16T13:59:48.954Z,2.40
2022-11-16T14:02:15.112Z,3.58
2022-11-16T14:04:41.229Z,3.15
2022-11-16T14:07:07.370Z,4.35
2022-11-16T14:09:33.542Z,3.97
2022-11-16T14:11:59.698Z,3.08
2022-11-16T14:14:25.825Z,12.27
2022-11-16T14:16:51.969Z,7.40
2022-11-16T14:19:18.111Z,1.92
2022-11-16T14:21:44.242Z,3.95
2022-11-16T14:24:10.392Z,2.13
2022-11-16T14:26:36.508Z,5.47
2022-11-16T14:29:02.614Z,4.03
2022-11-16T14:31:28.770Z,2.00
2022-11-16T14:33:55.375Z,3.67
2022-11-16T14:36:21.548Z,3.55
2022-11-16T14:38:47.666Z,3.47
2022-11-16T14:41:13.801Z,2.50
2022-11-16T14:43:39.920Z,2.25
2022-11-16T14:46:06.096Z,9.27
2022-11-16T14:48:32.208Z,2.78
2022-11-16T14:50:58.345Z,5.78
2022-11-16T14:53:24.504Z,4.65
2022-11-16T14:55:50.637Z,2.67
2022-11-16T14:58:16.820Z,4.22
2022-11-16T15:00:42.953Z,3.55
2022-11-16T15:03:09.128Z,3.40
2022-11-16T15:05:35.252Z,6.70
2022-11-16T15:08:01.409Z,7.30
2022-11-16T15:10:27.564Z,3.50
2022-11-16T15:12:53.681Z,5.72
2022-11-16T15:15:19.834Z,3.40
2022-11-16T15:17:45.986Z,5.65
2022-11-16T15:20:12.123Z,5.93
2022-11-16T15:22:38.270Z,4.90
2022-11-16T15:25:04.447Z,4.10
2022-11-16T15:27:30.613Z,7.07
2022-11-16T15:29:56.749Z,6.68
2022-11-16T15:32:22.869Z,4.43
2022-11-16T15:34:49.035Z,5.60
2022-11-16T15:37:15.179Z,4.32
2022-11-16T15:39:41.338Z,3.55
2022-11-16T15:42:07.554Z,3.63
2022-11-16T15:44:33.727Z,3.15
2022-11-16T15:46:59.873Z,9.95
2022-11-16T15:49:26.031Z,4.65
2022-11-16T15:51:52.215Z,5.40
2022-11-16T15:54:18.341Z,2.22
2022-11-16T15:56:44.447Z,4.50
2022-11-16T15:59:10.601Z,4.35
2022-11-16T16:01:36.858Z,6.60
2022-11-16T16:04:04.195Z,3.08
2022-11-16T16:06:30.361Z,4.40
2022-11-16T16:08:56.495Z,6.40
2022-11-16T16:11:26.598Z,6.00
2022-11-16T16:13:53.147Z,7.23
2022-11-16T16:16:19.269Z,4.28
2022-11-16T16:18:45.398Z,8.52
2022-11-16T16:21:11.543Z,6.53
2022-11-16T16:23:37.673Z,8.90
2022-11-16T16:26:03.817Z,4.38
2022-11-16T16:28:29.951Z,2.63
2022-11-16T16:30:56.068Z,5.65
2022-11-16T16:33:22.243Z,10.35
2022-11-16T16:35:48.361Z,8.48
2022-11-16T16:38:14.510Z,11.60
2022-11-16T16:40:40.653Z,9.57
2022-11-16T16:43:06.770Z,9.65
2022-11-16T16:45:32.902Z,9.02
2022-11-16T16:47:59.107Z,8.05
2022-11-16T16:50:25.264Z,7.38
2022-11-16T16:52:51.387Z,7.85
2022-11-16T16:55:17.514Z,6.03
2022-11-16T16:57:43.642Z,5.38
2022-11-16T17:00:09.768Z,9.40
2022-11-16T17:02:35.941Z,6.88
2022-11-16T17:05:02.076Z,10.82
2022-11-16T17:07:28.248Z,11.25
2022-11-16T17:09:54.478Z,12.75
2022-11-16T17:12:20.589Z,9.32
2022-11-16T17:14:46.712Z,9.93
2022-11-16T17:17:12.873Z,8.02
2022-11-16T17:19:38.990Z,6.65
2022-11-16T17:22:05.135Z,15.32
2022-11-16T17:24:31.256Z,12.10
2022-11-16T17:26:57.430Z,5.45
2022-11-16T17:29:23.594Z,4.47
2022-11-16T17:31:49.713Z,7.93
2022-11-16T17:34:15.838Z,9.13
2022-11-16T17:36:41.995Z,9.35
2022-11-16T17:39:08.128Z,5.35
2022-11-16T17:41:34.262Z,9.23
2022-11-16T17:44:00.379Z,5.82
2022-11-16T17:46:26.491Z,7.28
2022-11-16T17:48:52.641Z,7.28
2022-11-16T17:51:18.780Z,4.43
2022-11-16T17:53:44.893Z,4.63
2022-11-16T17:56:11.080Z,6.18
2022-11-16T17:58:37.194Z,4.50
2022-11-16T18:01:03.376Z,5.68
2022-11-16T18:03:29.565Z,5.57
2022-11-16T18:05:55.684Z,5.82
2022-11-16T18:08:21.809Z,6.13
2022-11-16T18:10:47.953Z,2.83
2022-11-16T18:13:14.085Z,5.03
2022-11-16T18:15:42.520Z,5.07
2022-11-16T18:18:08.889Z,3.78
2022-11-16T18:20:35.099Z,3.50
2022-11-16T18:23:01.240Z,4.30
2022-11-16T18:25:27.383Z,5.20
2022-11-16T18:27:53.549Z,3.30
2022-11-16T18:30:19.690Z,3.50
2022-11-16T18:32:45.797Z,4.38
2022-11-16T18:35:11.926Z,5.38
2022-11-16T18:37:38.067Z,6.30
2022-11-16T18:40:04.221Z,3.70
2022-11-16T18:42:30.352Z,6.10
2022-11-16T18:44:56.509Z,4.97
2022-11-16T18:47:22.670Z,8.80
2022-11-16T18:49:48.821Z,4.60
2022-11-16T18:52:14.957Z,4.00
2022-11-16T18:54:41.081Z,7.45
2022-11-16T18:57:07.216Z,6.85
2022-11-16T18:59:33.321Z,8.57
2022-11-16T19:01:59.459Z,11.15
2022-11-16T19:04:25.592Z,9.13
2022-11-16T19:06:51.742Z,10.57
2022-11-16T19:09:17.917Z,11.30
2022-11-16T19:11:44.051Z,7.72
2022-11-16T19:14:10.176Z,3.65
2022-11-16T19:16:36.319Z,4.75
2022-11-16T19:19:02.436Z,4.22
2022-11-16T19:21:28.573Z,7.30
2022-11-16T19:23:54.692Z,4.93
2022-11-16T19:26:20.810Z,6.32
2022-11-16T19:28:46.990Z,11.02
2022-11-16T19:31:13.140Z,6.22
2022-11-16T19:33:39.310Z,6.20
2022-11-16T19:36:05.455Z,5.68
2022-11-16T19:38:31.620Z,6.13
2022-11-16T19:40:57.791Z,16.90
2022-11-16T19:43:23.937Z,7.70
2022-11-16T19:45:50.062Z,7.03
2022-11-16T19:48:16.211Z,6.40
2022-11-16T19:50:42.335Z,6.75
2022-11-16T19:53:08.471Z,13.45
2022-11-16T19:55:34.571Z,6.72
2022-11-16T19:58:00.687Z,8.02
2022-11-16T20:00:26.805Z,4.40
2022-11-16T20:02:52.930Z,6.65
2022-11-16T20:05:19.124Z,6.55
2022-11-16T20:07:45.225Z,6.00
2022-11-16T20:10:11.339Z,5.35
2022-11-16T20:12:37.471Z,5.97
2022-11-16T20:15:03.602Z,5.97
2022-11-16T20:17:29.737Z,8.10
2022-11-16T20:19:55.914Z,9.52
2022-11-16T20:22:22.233Z,10.43
2022-11-16T20:24:48.400Z,4.03
2022-11-16T20:27:14.530Z,5.57
2022-11-16T20:29:40.664Z,5.30
2022-11-16T20:32:06.786Z,11.00
2022-11-16T20:34:32.938Z,4.03
2022-11-16T20:36:59.087Z,9.13
2022-11-16T20:39:25.249Z,4.82
2022-11-16T20:41:51.384Z,7.38
2022-11-16T20:44:17.510Z,3.90
2022-11-16T20:46:43.666Z,6.13
2022-11-16T20:49:09.797Z,7.35
2022-11-16T20:51:35.949Z,14.52
2022-11-16T20:54:02.089Z,9.50
2022-11-16T20:56:28.214Z,7.32
2022-11-16T20:58:54.350Z,5.88
2022-11-16T21:01:20.526Z,5.47
2022-11-16T21:03:46.714Z,5.53
2022-11-16T21:06:12.843Z,4.32
2022-11-16T21:08:38.964Z,6.25
2022-11-16T21:11:05.148Z,4.72
2022-11-16T21:13:31.378Z,6.53
2022-11-16T21:15:57.539Z,5.55
2022-11-16T21:18:29.376Z,3.83
2022-11-16T21:20:56.808Z,5.78
2022-11-16T21:23:22.941Z,8.68
2022-11-16T21:25:49.076Z,5.68
2022-11-16T21:28:15.223Z,3.55
2022-11-16T21:30:41.380Z,7.30
2022-11-16T21:33:07.539Z,4.85
2022-11-16T21:35:33.648Z,6.78
2022-11-16T21:37:59.784Z,8.55
2022-11-16T21:40:25.944Z,6.43
2022-11-16T21:42:52.092Z,4.28
2022-11-16T21:45:18.197Z,5.13
2022-11-16T21:47:44.352Z,3.28
2022-11-16T21:50:31.304Z,5.18
2022-11-16T21:52:56.609Z,6.68
2022-11-16T21:55:22.738Z,4.38
2022-11-16T21:57:48.861Z,3.53
2022-11-16T22:00:15.037Z,4.18
2022-11-16T22:02:41.183Z,5.60
2022-11-16T22:05:07.320Z,5.03
2022-11-16T22:07:33.492Z,6.45
2022-11-16T22:09:59.691Z,5.15
2022-11-16T22:12:25.806Z,3.60
2022-11-16T22:14:51.944Z,5.82
2022-11-16T22:17:18.101Z,8.80
2022-11-16T22:19:44.246Z,3.55
2022-11-16T22:22:10.390Z,7.38
2022-11-16T22:24:36.561Z,5.13
2022-11-16T22:27:02.757Z,5.00
2022-11-16T22:29:28.880Z,7.68
2022-11-16T22:31:55.022Z,4.68
2022-11-16T22:34:21.141Z,7.80
2022-11-16T22:36:47.254Z,6.25
2022-11-16T22:39:13.391Z,4.90
2022-11-16T22:41:39.534Z,4.28
2022-11-16T22:44:05.660Z,5.97
2022-11-16T22:46:31.774Z,9.88
2022-11-16T22:48:57.911Z,4.63
2022-11-16T22:51:24.042Z,4.35
2022-11-16T22:53:50.153Z,4.55
2022-11-16T22:56:16.285Z,5.38
2022-11-16T22:58:42.403Z,4.10
2022-11-16T23:01:08.558Z,4.13
2022-11-16T23:03:35.138Z,4.45
2022-11-16T23:06:01.795Z,4.75
2022-11-16T23:08:27.913Z,3.83
2022-11-16T23:10:54.051Z,3.53
2022-11-16T23:13:20.203Z,5.10
2022-11-16T23:15:46.318Z,5.10
2022-11-16T23:18:12.444Z,5.68
2022-11-16T23:20:38.575Z,5.00
2022-11-16T23:23:04.724Z,5.13
2022-11-16T23:25:30.867Z,4.70
2022-11-16T23:27:56.993Z,4.57
2022-11-16T23:30:23.101Z,6.53
2022-11-16T23:32:49.241Z,5.28
2022-11-16T23:35:15.359Z,3.45
2022-11-16T23:37:41.513Z,6.60
2022-11-16T23:40:07.640Z,4.55
2022-11-16T23:42:33.796Z,4.00
2022-11-16T23:44:59.913Z,4.97
2022-11-16T23:47:26.039Z,7.63
2022-11-16T23:49:52.191Z,5.97
2022-11-16T23:52:18.286Z,6.22
2022-11-16T23:54:44.416Z,5.07
2022-11-16T23:57:10.547Z,6.15
2022-11-16T23:59:36.682Z,5.75
